createdAt,value
2022-11-07T00:00:19.326Z,85.60
2022-11-07T00:00:53.355Z,85.60
2022-11-07T00:01:26.394Z,85.70
2022-11-07T00:02:01.183Z,85.80
2022-11-07T00:02:35.972Z,86.00
2022-11-07T00:03:11.513Z,86.10
2022-11-07T00:03:44.863Z,86.00
2022-11-07T00:04:20.454Z,86.10
2022-11-07T00:04:54.634Z,86.20
2022-11-07T00:05:28.405Z,86.10
2022-11-07T00:06:03.150Z,86.20
2022-11-07T00:06:38.002Z,86.10
2022-11-07T00:07:11.286Z,86.00
2022-11-07T00:07:45.975Z,85.90
2022-11-07T00:08:20.034Z,85.80
2022-11-07T00:08:54.764Z,86.00
2022-11-07T00:09:28.949Z,86.00
2022-11-07T00:10:01.773Z,86.20
2022-11-07T00:10:36.010Z,86.30
2022-11-07T00:11:09.459Z,86.40
2022-11-07T00:11:44.324Z,86.30
2022-11-07T00:12:19.002Z,86.20
2022-11-07T00:12:53.098Z,86.30
2022-11-07T00:13:28.135Z,86.30
2022-11-07T00:14:01.648Z,86.30
2022-11-07T00:14:35.332Z,86.30
2022-11-07T00:15:11.909Z,86.40
2022-11-07T00:15:46.023Z,86.40
2022-11-07T00:16:20.048Z,86.50
2022-11-07T00:16:55.280Z,86.70
2022-11-07T00:17:29.475Z,86.80
2022-11-07T00:18:03.980Z,86.90
2022-11-07T00:18:38.036Z,86.90
2022-11-07T00:19:11.414Z,86.80
2022-11-07T00:19:46.882Z,86.90
2022-11-07T00:20:21.284Z,87.10
2022-11-07T00:20:54.920Z,87.00
2022-11-07T00:21:29.193Z,87.10
2022-11-07T00:22:03.206Z,87.20
2022-11-07T00:22:36.949Z,87.20
2022-11-07T00:23:11.757Z,87.20
2022-11-07T00:23:46.328Z,87.20
2022-11-07T00:24:19.566Z,87.20
2022-11-07T00:24:53.496Z,87.10
2022-11-07T00:25:27.091Z,87.10
2022-11-07T00:26:02.876Z,87.10
2022-11-07T00:26:36.469Z,87.10
2022-11-07T00:27:09.940Z,87.10
2022-11-07T00:27:45.685Z,87.30
2022-11-07T00:28:19.338Z,87.30
2022-11-07T00:28:52.911Z,87.30
2022-11-07T00:29:27.030Z,87.30
2022-11-07T00:30:00.352Z,87.40
2022-11-07T00:30:35.087Z,87.30
2022-11-07T00:31:09.940Z,87.50
2022-11-07T00:31:43.622Z,87.70
2022-11-07T00:32:17.185Z,87.80
2022-11-07T00:32:50.885Z,87.80
2022-11-07T00:33:23.921Z,87.90
2022-11-07T00:33:58.038Z,87.90
2022-11-07T00:34:33.567Z,87.80
2022-11-07T00:35:11.874Z,87.80
2022-11-07T00:35:47.136Z,87.80
2022-11-07T00:36:21.646Z,87.90
2022-11-07T00:36:55.880Z,88.00
2022-11-07T00:37:29.753Z,88.00
2022-11-07T00:38:02.786Z,88.00
2022-11-07T00:38:37.354Z,87.90
2022-11-07T00:39:11.917Z,87.90
2022-11-07T00:39:45.046Z,87.80
2022-11-07T00:40:18.146Z,87.90
2022-11-07T00:40:57.944Z,88.00
2022-11-07T00:41:30.895Z,87.80
2022-11-07T00:42:05.301Z,87.70
2022-11-07T00:42:38.159Z,87.80
2022-11-07T00:43:11.475Z,87.80
2022-11-07T00:43:45.564Z,87.90
2022-11-07T00:44:20.095Z,88.00
2022-11-07T00:44:52.647Z,88.00
2022-11-07T00:45:26.825Z,88.00
2022-11-07T00:46:01.851Z,88.10
2022-11-07T00:46:35.491Z,88.20
2022-11-07T00:47:09.600Z,88.20
2022-11-07T00:47:44.880Z,88.20
2022-11-07T00:48:17.702Z,88.20
2022-11-07T00:48:53.083Z,88.30
2022-11-07T00:49:26.563Z,88.10
2022-11-07T00:50:00.687Z,88.20
2022-11-07T00:50:36.650Z,88.40
2022-11-07T00:51:11.433Z,88.50
2022-11-07T00:51:45.164Z,88.60
2022-11-07T00:52:19.313Z,88.60
2022-11-07T00:52:53.249Z,88.70
2022-11-07T00:53:28.105Z,88.70
2022-11-07T00:54:02.835Z,88.80
2022-11-07T00:54:38.073Z,88.80
2022-11-07T00:55:11.592Z,88.90
2022-11-07T00:55:45.736Z,88.90
2022-11-07T00:56:20.361Z,88.90
2022-11-07T00:56:54.067Z,88.90
2022-11-07T00:57:29.535Z,88.90
2022-11-07T00:58:03.062Z,89.00
2022-11-07T00:58:37.487Z,89.20
2022-11-07T00:59:13.490Z,89.00
2022-11-07T00:59:47.163Z,88.80
2022-11-07T01:00:23.420Z,88.70
2022-11-07T01:00:57.210Z,88.90
2022-11-07T01:01:32.290Z,89.10
2022-11-07T01:02:06.960Z,89.10
2022-11-07T01:02:40.188Z,89.10
2022-11-07T01:03:34.600Z,89.10
2022-11-07T01:04:25.734Z,89.00
2022-11-07T01:05:11.370Z,89.10
2022-11-07T01:05:55.368Z,89.10
2022-11-07T01:06:31.127Z,89.10
2022-11-07T01:07:04.268Z,89.20
2022-11-07T01:07:38.378Z,89.40
2022-11-07T01:08:13.552Z,89.50
2022-11-07T01:08:46.991Z,89.30
2022-11-07T01:09:22.386Z,89.20
2022-11-07T01:09:56.014Z,89.10
2022-11-07T01:10:29.062Z,89.10
2022-11-07T01:11:04.841Z,89.10
2022-11-07T01:11:38.922Z,89.20
2022-11-07T01:12:12.453Z,89.20
2022-11-07T01:12:46.707Z,89.10
2022-11-07T01:13:20.359Z,89.10
2022-11-07T01:13:56.137Z,89.10
2022-11-07T01:14:31.513Z,89.20
2022-11-07T01:15:06.592Z,89.20
2022-11-07T01:15:41.500Z,89.30
2022-11-07T01:16:15.129Z,89.40
2022-11-07T01:16:48.568Z,89.20
2022-11-07T01:17:22.507Z,89.30
2022-11-07T01:17:57.949Z,89.30
2022-11-07T01:18:31.962Z,89.30
2022-11-07T01:19:06.042Z,89.30
2022-11-07T01:19:40.966Z,89.20
2022-11-07T01:20:14.940Z,89.20
2022-11-07T01:20:50.353Z,89.30
2022-11-07T01:21:24.656Z,89.50
2022-11-07T01:21:59.126Z,89.60
2022-11-07T01:22:32.983Z,89.60
2022-11-07T01:23:06.385Z,89.50
2022-11-07T01:23:40.942Z,89.40
2022-11-07T01:24:16.874Z,89.50
2022-11-07T01:24:50.628Z,89.50
2022-11-07T01:25:24.731Z,89.40
2022-11-07T01:25:59.883Z,89.40
2022-11-07T01:26:32.961Z,89.60
2022-11-07T01:27:06.765Z,89.60
2022-11-07T01:27:40.826Z,89.60
2022-11-07T01:28:14.049Z,89.60
2022-11-07T01:28:47.792Z,89.60
2022-11-07T01:29:22.895Z,89.80
2022-11-07T01:29:55.840Z,89.70
2022-11-07T01:30:29.859Z,89.70
2022-11-07T01:31:05.150Z,89.70
2022-11-07T01:31:39.253Z,89.70
2022-11-07T01:32:13.311Z,89.80
2022-11-07T01:32:49.018Z,89.70
2022-11-07T01:33:22.013Z,89.80
2022-11-07T01:33:56.182Z,89.80
2022-11-07T01:34:32.015Z,89.70
2022-11-07T01:35:09.190Z,89.70
2022-11-07T01:35:42.468Z,89.70
2022-11-07T01:36:20.859Z,89.60
2022-11-07T01:36:54.444Z,89.70
2022-11-07T01:37:28.903Z,89.70
2022-11-07T01:38:03.485Z,89.70
2022-11-07T01:38:40.044Z,89.70
2022-11-07T01:39:13.355Z,89.60
2022-11-07T01:39:48.033Z,89.60
2022-11-07T01:40:21.400Z,89.70
2022-11-07T01:41:12.855Z,89.80
2022-11-07T01:41:48.191Z,89.90
2022-11-07T01:42:22.609Z,89.90
2022-11-07T01:42:55.899Z,90.00
2022-11-07T01:43:42.366Z,90.00
2022-11-07T01:44:35.021Z,90.00
2022-11-07T01:45:14.618Z,90.00
2022-11-07T01:45:48.673Z,90.00
2022-11-07T01:46:23.966Z,90.00
2022-11-07T01:46:58.354Z,90.00
2022-11-07T01:47:34.783Z,90.00
2022-11-07T01:48:09.324Z,90.10
2022-11-07T01:48:43.800Z,90.00
2022-11-07T01:49:21.529Z,90.10
2022-11-07T01:49:55.361Z,90.10
2022-11-07T01:50:30.220Z,90.10
2022-11-07T01:51:04.695Z,90.20
2022-11-07T01:51:43.725Z,90.10
2022-11-07T01:52:19.957Z,90.10
2022-11-07T01:52:55.790Z,90.10
2022-11-07T01:53:29.976Z,90.40
2022-11-07T01:54:03.348Z,90.10
2022-11-07T01:54:41.715Z,90.00
2022-11-07T01:55:16.863Z,90.00
2022-11-07T01:55:49.678Z,90.10
2022-11-07T01:56:25.645Z,90.00
2022-11-07T01:57:01.865Z,90.00
2022-11-07T01:57:37.838Z,90.00
2022-11-07T01:58:12.473Z,90.10
2022-11-07T01:58:46.976Z,90.00
2022-11-07T01:59:22.924Z,90.10
2022-11-07T01:59:57.903Z,90.10
2022-11-07T02:00:32.813Z,90.10
2022-11-07T02:01:06.329Z,90.10
2022-11-07T02:01:41.796Z,90.10
2022-11-07T02:02:15.686Z,90.10
2022-11-07T02:02:52.213Z,90.20
2022-11-07T02:03:27.458Z,90.20
2022-11-07T02:04:00.988Z,90.10
2022-11-07T02:04:34.035Z,90.10
2022-11-07T02:05:09.456Z,90.10
2022-11-07T02:05:44.415Z,90.10
2022-11-07T02:06:20.682Z,90.20
2022-11-07T02:06:59.942Z,90.20
2022-11-07T02:07:33.605Z,90.20
2022-11-07T02:08:08.730Z,90.20
2022-11-07T02:08:43.637Z,90.20
2022-11-07T02:09:17.251Z,90.20
2022-11-07T02:09:50.691Z,90.20
2022-11-07T02:10:25.320Z,90.20
2022-11-07T02:11:00.281Z,90.30
2022-11-07T02:11:34.649Z,90.30
2022-11-07T02:12:09.310Z,90.30
2022-11-07T02:12:43.042Z,90.30
2022-11-07T02:13:38.735Z,90.20
2022-11-07T02:14:15.936Z,90.20
2022-11-07T02:14:50.180Z,90.30
2022-11-07T02:15:23.707Z,90.40
2022-11-07T02:15:59.510Z,90.40
2022-11-07T02:16:35.213Z,90.40
2022-11-07T02:17:10.817Z,90.40
2022-11-07T02:17:44.452Z,90.40
2022-11-07T02:18:17.988Z,90.30
2022-11-07T02:18:52.523Z,90.30
2022-11-07T02:19:31.785Z,90.30
2022-11-07T02:20:07.116Z,90.40
2022-11-07T02:20:41.763Z,90.40
2022-11-07T02:21:21.662Z,90.40
2022-11-07T02:22:00.056Z,90.50
2022-11-07T02:22:38.540Z,90.50
2022-11-07T02:23:14.891Z,90.50
2022-11-07T02:23:53.209Z,90.80
2022-11-07T02:24:30.042Z,90.50
2022-11-07T02:25:07.037Z,90.60
2022-11-07T02:25:41.901Z,90.60
2022-11-07T02:26:18.015Z,90.60
2022-11-07T02:26:52.405Z,90.60
2022-11-07T02:27:27.307Z,90.60
2022-11-07T02:28:04.247Z,90.50
2022-11-07T02:28:38.844Z,90.50
2022-11-07T02:29:13.599Z,90.60
2022-11-07T02:29:49.413Z,90.60
2022-11-07T02:30:24.496Z,90.60
2022-11-07T02:30:58.161Z,90.60
2022-11-07T02:31:32.203Z,90.60
2022-11-07T02:32:06.215Z,90.60
2022-11-07T02:32:39.332Z,90.60
2022-11-07T02:33:20.573Z,90.60
2022-11-07T02:33:54.156Z,90.60
2022-11-07T02:34:28.224Z,90.50
2022-11-07T02:35:02.515Z,90.50
2022-11-07T02:35:38.103Z,90.60
2022-11-07T02:36:15.302Z,90.50
2022-11-07T02:36:50.028Z,90.50
2022-11-07T02:37:25.822Z,90.50
2022-11-07T02:37:59.230Z,90.50
2022-11-07T02:38:34.361Z,90.50
2022-11-07T02:39:08.016Z,90.50
2022-11-07T02:39:42.574Z,90.60
2022-11-07T02:40:17.866Z,90.60
2022-11-07T02:40:53.178Z,90.60
2022-11-07T02:41:29.287Z,90.60
2022-11-07T02:42:03.540Z,90.70
2022-11-07T02:42:43.657Z,90.60
2022-11-07T02:43:18.189Z,90.60
2022-11-07T02:43:54.438Z,90.60
2022-11-07T02:44:29.463Z,90.60
2022-11-07T02:45:04.248Z,90.60
2022-11-07T02:45:40.938Z,90.70
2022-11-07T02:46:15.416Z,90.70
2022-11-07T02:46:48.469Z,90.70
2022-11-07T02:47:22.019Z,90.70
2022-11-07T02:47:56.675Z,90.70
2022-11-07T02:48:30.395Z,90.70
2022-11-07T02:49:04.680Z,90.80
2022-11-07T02:49:39.741Z,90.70
2022-11-07T02:50:14.290Z,90.70
2022-11-07T02:50:48.878Z,90.70
2022-11-07T02:51:22.490Z,90.80
2022-11-07T02:51:56.253Z,90.80
2022-11-07T02:52:31.294Z,90.90
2022-11-07T02:53:05.606Z,90.90
2022-11-07T02:53:39.953Z,90.90
2022-11-07T02:54:15.116Z,90.90
2022-11-07T02:54:50.520Z,91.00
2022-11-07T02:55:23.730Z,91.00
2022-11-07T02:55:58.941Z,91.00
2022-11-07T02:56:32.846Z,90.90
2022-11-07T02:57:05.911Z,90.90
2022-11-07T02:57:40.475Z,90.90
2022-11-07T02:58:14.633Z,90.90
2022-11-07T02:58:47.709Z,91.00
2022-11-07T02:59:26.818Z,91.00
2022-11-07T03:00:01.028Z,91.00
2022-11-07T03:00:34.645Z,91.00
2022-11-07T03:01:08.198Z,90.90
2022-11-07T03:01:42.509Z,90.90
2022-11-07T03:02:16.842Z,90.90
2022-11-07T03:02:51.322Z,90.90
2022-11-07T03:03:26.826Z,90.90
2022-11-07T03:04:01.190Z,90.90
2022-11-07T03:04:35.445Z,90.90
2022-11-07T03:05:10.684Z,90.90
2022-11-07T03:05:45.096Z,90.90
2022-11-07T03:06:22.172Z,91.00
2022-11-07T03:06:55.843Z,91.00
2022-11-07T03:07:29.414Z,91.00
2022-11-07T03:08:03.797Z,91.00
2022-11-07T03:08:38.272Z,91.00
2022-11-07T03:09:12.291Z,91.10
2022-11-07T03:09:48.116Z,91.10
2022-11-07T03:10:23.709Z,91.10
2022-11-07T03:10:56.772Z,91.10
2022-11-07T03:11:31.466Z,91.10
2022-11-07T03:12:05.345Z,91.10
2022-11-07T03:12:39.470Z,91.10
2022-11-07T03:13:14.110Z,91.10
2022-11-07T03:13:48.281Z,91.10
2022-11-07T03:14:22.011Z,91.10
2022-11-07T03:14:56.664Z,91.10
2022-11-07T03:15:30.848Z,91.20
2022-11-07T03:16:04.714Z,91.20
2022-11-07T03:16:39.618Z,91.20
2022-11-07T03:17:12.704Z,91.20
2022-11-07T03:17:46.632Z,91.20
2022-11-07T03:18:20.822Z,91.20
2022-11-07T03:18:54.913Z,91.20
2022-11-07T03:19:28.432Z,91.20
2022-11-07T03:20:03.146Z,91.10
2022-11-07T03:20:36.661Z,91.10
2022-11-07T03:21:10.850Z,91.10
2022-11-07T03:21:44.913Z,91.10
2022-11-07T03:22:18.305Z,91.10
2022-11-07T03:22:51.874Z,91.10
2022-11-07T03:23:26.460Z,91.10
2022-11-07T03:23:59.620Z,91.20
2022-11-07T03:24:33.948Z,91.20
2022-11-07T03:25:09.160Z,91.20
2022-11-07T03:25:44.189Z,91.20
2022-11-07T03:26:18.831Z,91.10
2022-11-07T03:26:53.628Z,91.10
2022-11-07T03:27:29.254Z,91.00
2022-11-07T03:28:04.508Z,91.10
2022-11-07T03:28:37.592Z,91.00
2022-11-07T03:29:10.755Z,91.00
2022-11-07T03:29:45.454Z,91.00
2022-11-07T03:30:19.489Z,91.00
2022-11-07T03:30:54.075Z,90.90
2022-11-07T03:31:28.443Z,90.90
2022-11-07T03:32:02.617Z,90.90
2022-11-07T03:32:36.836Z,90.90
2022-11-07T03:33:10.341Z,90.80
2022-11-07T03:33:44.401Z,90.80
2022-11-07T03:34:17.569Z,90.80
2022-11-07T03:34:51.224Z,90.80
2022-11-07T03:35:25.571Z,90.80
2022-11-07T03:35:59.458Z,90.80
2022-11-07T03:36:34.810Z,90.80
2022-11-07T03:37:08.776Z,90.80
2022-11-07T03:37:42.581Z,90.80
2022-11-07T03:38:17.368Z,90.80
2022-11-07T03:38:51.483Z,90.80
2022-11-07T03:39:26.132Z,90.80
2022-11-07T03:40:00.949Z,90.80
2022-11-07T03:40:34.075Z,90.80
2022-11-07T03:41:08.735Z,90.80
2022-11-07T03:41:43.948Z,90.80
2022-11-07T03:42:18.518Z,90.80
2022-11-07T03:42:53.443Z,90.80
2022-11-07T03:43:26.467Z,90.70
2022-11-07T03:43:59.894Z,90.70
2022-11-07T03:44:35.270Z,90.70
2022-11-07T03:45:09.421Z,90.70
2022-11-07T03:45:43.590Z,90.70
2022-11-07T03:46:17.978Z,90.70
2022-11-07T03:46:52.275Z,90.70
2022-11-07T03:47:26.351Z,90.70
2022-11-07T03:48:01.603Z,90.70
2022-11-07T03:48:35.439Z,90.80
2022-11-07T03:49:09.355Z,90.80
2022-11-07T03:49:45.055Z,90.80
2022-11-07T03:50:19.447Z,90.70
2022-11-07T03:50:53.599Z,90.70
2022-11-07T03:51:29.845Z,90.80
2022-11-07T03:52:04.279Z,90.80
2022-11-07T03:52:38.831Z,90.80
2022-11-07T03:53:13.254Z,90.80
2022-11-07T03:53:47.178Z,90.90
2022-11-07T03:54:20.778Z,90.90
2022-11-07T03:54:55.997Z,90.90
2022-11-07T03:55:29.517Z,91.20
2022-11-07T03:56:09.084Z,91.00
2022-11-07T03:56:43.292Z,90.90
2022-11-07T03:57:16.201Z,91.00
2022-11-07T03:57:49.490Z,91.00
2022-11-07T03:58:23.154Z,90.90
2022-11-07T03:58:56.240Z,90.90
2022-11-07T03:59:30.325Z,90.90
2022-11-07T04:00:05.664Z,90.80
2022-11-07T04:00:46.089Z,90.80
2022-11-07T04:01:19.791Z,90.80
2022-11-07T04:01:53.437Z,90.80
2022-11-07T04:02:27.201Z,90.80
2022-11-07T04:03:01.152Z,90.80
2022-11-07T04:03:34.785Z,90.90
2022-11-07T04:04:09.566Z,90.80
2022-11-07T04:04:43.267Z,90.80
2022-11-07T04:05:18.237Z,90.80
2022-11-07T04:05:51.318Z,90.80
2022-11-07T04:06:25.691Z,90.80
2022-11-07T04:07:00.475Z,90.70
2022-11-07T04:07:34.111Z,90.70
2022-11-07T04:08:07.891Z,90.70
2022-11-07T04:08:43.163Z,90.70
2022-11-07T04:09:17.109Z,90.70
2022-11-07T04:09:51.276Z,90.70
2022-11-07T04:10:26.014Z,90.80
2022-11-07T04:11:00.164Z,90.70
2022-11-07T04:11:53.225Z,90.70
2022-11-07T04:12:44.977Z,90.70
2022-11-07T04:13:35.937Z,90.80
2022-11-07T04:14:27.773Z,90.80
2022-11-07T04:15:19.898Z,90.80
2022-11-07T04:16:25.861Z,90.80
2022-11-07T04:17:17.200Z,90.80
2022-11-07T04:17:52.367Z,90.80
2022-11-07T04:18:25.745Z,90.90
2022-11-07T04:18:59.473Z,90.80
2022-11-07T04:19:34.155Z,90.80
2022-11-07T04:20:13.215Z,90.80
2022-11-07T04:20:46.962Z,90.90
2022-11-07T04:21:21.769Z,90.90
2022-11-07T04:21:55.143Z,90.90
2022-11-07T04:22:29.861Z,90.90
2022-11-07T04:23:04.636Z,90.90
2022-11-07T04:23:38.062Z,90.90
2022-11-07T04:24:11.667Z,90.90
2022-11-07T04:24:46.230Z,90.90
2022-11-07T04:25:40.631Z,91.00
2022-11-07T04:26:31.542Z,91.00
2022-11-07T04:27:25.322Z,91.00
2022-11-07T04:27:59.493Z,91.00
2022-11-07T04:28:33.437Z,91.00
2022-11-07T04:29:06.009Z,91.00
2022-11-07T04:29:40.737Z,91.00
2022-11-07T04:30:20.165Z,91.00
2022-11-07T04:30:55.719Z,91.20
2022-11-07T04:31:29.389Z,90.90
2022-11-07T04:32:02.421Z,90.90
2022-11-07T04:32:36.715Z,91.00
2022-11-07T04:33:09.974Z,91.00
2022-11-07T04:33:44.030Z,91.00
2022-11-07T04:34:19.077Z,91.00
2022-11-07T04:34:52.867Z,91.00
2022-11-07T04:35:28.536Z,91.00
2022-11-07T04:36:02.721Z,91.00
2022-11-07T04:36:36.971Z,91.00
2022-11-07T04:37:11.596Z,91.00
2022-11-07T04:37:45.363Z,91.00
2022-11-07T04:38:20.410Z,91.00
2022-11-07T04:38:54.789Z,91.00
2022-11-07T04:39:29.577Z,91.00
2022-11-07T04:40:03.844Z,91.00
2022-11-07T04:40:39.248Z,91.00
2022-11-07T04:41:19.260Z,91.00
2022-11-07T04:41:53.380Z,91.00
2022-11-07T04:42:29.311Z,91.00
2022-11-07T04:43:09.529Z,91.00
2022-11-07T04:43:44.044Z,91.00
2022-11-07T04:44:18.802Z,91.00
2022-11-07T04:44:52.869Z,91.00
2022-11-07T04:45:26.901Z,90.90
2022-11-07T04:46:00.432Z,90.90
2022-11-07T04:46:34.142Z,90.90
2022-11-07T04:47:08.296Z,90.90
2022-11-07T04:47:41.157Z,90.90
2022-11-07T04:48:14.890Z,91.00
2022-11-07T04:48:48.499Z,90.90
2022-11-07T04:49:22.710Z,90.90
2022-11-07T04:49:56.371Z,90.90
2022-11-07T04:55:38.813Z,91.00
2022-11-07T04:56:12.979Z,90.90
2022-11-07T04:56:46.582Z,90.90
2022-11-07T04:57:20.414Z,90.90
2022-11-07T04:57:55.255Z,91.00
2022-11-07T04:58:29.244Z,90.90
2022-11-07T04:59:03.295Z,90.90
2022-11-07T04:59:37.473Z,91.00
2022-11-07T05:00:12.948Z,91.00
2022-11-07T05:00:47.625Z,91.00
2022-11-07T05:01:22.350Z,91.00
2022-11-07T05:01:56.449Z,90.90
2022-11-07T05:02:30.034Z,91.00
2022-11-07T05:03:04.185Z,91.00
2022-11-07T05:03:41.829Z,91.00
2022-11-07T05:04:15.515Z,91.00
2022-11-07T05:04:48.995Z,91.00
2022-11-07T05:05:21.935Z,91.10
2022-11-07T05:05:55.538Z,91.10
2022-11-07T05:06:29.093Z,91.10
2022-11-07T05:07:02.589Z,91.10
2022-11-07T05:07:38.975Z,91.10
2022-11-07T05:08:13.505Z,91.00
2022-11-07T05:08:46.607Z,91.00
2022-11-07T05:09:19.237Z,91.00
2022-11-07T05:09:53.884Z,91.00
2022-11-07T05:10:28.872Z,91.00
2022-11-07T05:11:03.183Z,91.00
2022-11-07T05:11:37.280Z,91.00
2022-11-07T05:12:10.377Z,91.00
2022-11-07T05:12:45.948Z,91.00
2022-11-07T05:13:21.606Z,91.00
2022-11-07T05:13:54.149Z,91.00
2022-11-07T05:14:28.909Z,91.00
2022-11-07T05:15:02.447Z,91.00
2022-11-07T05:15:36.649Z,91.00
2022-11-07T05:16:12.579Z,90.90
2022-11-07T05:16:48.239Z,90.90
2022-11-07T05:17:26.843Z,90.90
2022-11-07T05:18:02.011Z,90.90
2022-11-07T05:18:37.071Z,90.90
2022-11-07T05:19:13.301Z,90.90
2022-11-07T05:19:48.439Z,90.90
2022-11-07T05:20:32.638Z,90.90
2022-11-07T05:21:07.019Z,90.90
2022-11-07T05:21:41.629Z,90.90
2022-11-07T05:22:32.524Z,91.10
2022-11-07T05:23:20.254Z,90.90
2022-11-07T05:23:55.300Z,90.80
2022-11-07T05:24:29.609Z,90.80
2022-11-07T05:25:03.519Z,90.80
2022-11-07T05:25:37.764Z,90.80
2022-11-07T05:26:11.030Z,90.80
2022-11-07T05:26:45.705Z,90.80
2022-11-07T05:27:20.348Z,90.90
2022-11-07T05:27:56.392Z,90.90
2022-11-07T05:28:38.855Z,90.90
2022-11-07T05:29:34.480Z,90.80
2022-11-07T05:30:41.367Z,90.80
2022-11-07T05:31:48.355Z,90.90
2022-11-07T05:32:54.310Z,90.90
2022-11-07T05:34:02.362Z,90.90
2022-11-07T05:35:08.307Z,91.00
2022-11-07T05:36:23.354Z,90.90
2022-11-07T05:37:29.314Z,90.90
2022-11-07T05:38:36.384Z,90.90
2022-11-07T05:39:42.407Z,91.00
2022-11-07T05:40:50.408Z,91.00
2022-11-07T05:41:56.395Z,91.00
2022-11-07T05:43:03.382Z,91.00
2022-11-07T05:44:10.385Z,91.10
2022-11-07T05:45:17.371Z,91.10
2022-11-07T05:46:23.371Z,91.10
2022-11-07T05:47:30.335Z,91.00
2022-11-07T05:48:37.334Z,91.10
2022-11-07T05:49:44.349Z,91.00
2022-11-07T05:50:52.369Z,91.00
2022-11-07T05:51:59.355Z,91.00
2022-11-07T05:53:05.424Z,91.00
2022-11-07T05:58:26.316Z,91.00
2022-11-07T05:59:34.354Z,91.00
2022-11-07T06:00:41.460Z,91.00
2022-11-07T06:01:51.338Z,91.00
2022-11-07T06:02:57.556Z,91.00
2022-11-07T06:04:05.355Z,91.00
2022-11-07T06:05:11.605Z,91.00
2022-11-07T06:06:18.361Z,91.00
2022-11-07T06:07:25.387Z,91.00
2022-11-07T06:08:32.367Z,91.00
2022-11-07T06:09:39.362Z,91.00
2022-11-07T06:10:46.355Z,91.00
2022-11-07T06:11:53.369Z,91.30
2022-11-07T06:13:22.356Z,91.10
2022-11-07T06:14:30.344Z,91.10
2022-11-07T06:15:38.406Z,91.00
2022-11-07T06:16:45.372Z,91.10
2022-11-07T06:17:51.366Z,91.10
2022-11-07T06:18:58.324Z,91.30
2022-11-07T06:20:04.348Z,91.10
2022-11-07T06:21:12.374Z,91.00
2022-11-07T06:22:18.385Z,91.10
2022-11-07T06:23:25.354Z,91.10
2022-11-07T06:24:32.897Z,91.00
2022-11-07T06:25:39.348Z,91.00
2022-11-07T06:26:46.315Z,91.00
2022-11-07T06:27:52.400Z,91.00
2022-11-07T06:28:59.310Z,91.00
2022-11-07T06:30:05.573Z,91.00
2022-11-07T06:31:15.420Z,91.10
2022-11-07T06:32:21.315Z,91.10
2022-11-07T06:33:30.336Z,91.10
2022-11-07T06:34:36.363Z,91.10
2022-11-07T06:35:43.569Z,91.20
2022-11-07T06:36:59.971Z,91.20
2022-11-07T06:38:09.352Z,91.20
2022-11-07T06:39:17.327Z,91.10
2022-11-07T06:40:25.302Z,91.10
2022-11-07T06:41:32.480Z,91.10
2022-11-07T06:42:39.340Z,91.10
2022-11-07T06:43:47.349Z,91.10
2022-11-07T06:44:53.341Z,91.10
2022-11-07T06:46:01.354Z,91.10
2022-11-07T06:47:09.508Z,91.10
2022-11-07T06:48:15.357Z,91.10
2022-11-07T06:49:22.698Z,91.20
2022-11-07T06:50:28.356Z,91.20
2022-11-07T06:51:35.336Z,91.10
2022-11-07T06:52:41.526Z,91.10
2022-11-07T06:53:48.319Z,91.10
2022-11-07T06:54:54.532Z,91.00
2022-11-07T06:56:01.374Z,91.00
2022-11-07T06:57:09.334Z,91.00
2022-11-07T06:58:15.495Z,90.90
2022-11-07T06:59:22.324Z,90.90
2022-11-07T07:00:31.401Z,90.90
2022-11-07T07:01:38.561Z,91.00
2022-11-07T07:02:58.095Z,91.20
2022-11-07T07:04:07.526Z,91.00
2022-11-07T07:05:15.986Z,90.90
2022-11-07T07:06:27.365Z,90.90
2022-11-07T07:07:33.349Z,90.90
2022-11-07T07:08:40.392Z,91.10
2022-11-07T07:09:46.561Z,91.10
2022-11-07T07:10:55.390Z,91.20
2022-11-07T07:12:02.371Z,91.20
2022-11-07T07:13:08.344Z,91.10
2022-11-07T07:14:15.389Z,91.10
2022-11-07T07:15:21.540Z,91.00
2022-11-07T07:16:28.361Z,91.00
2022-11-07T07:17:34.337Z,91.00
2022-11-07T07:18:42.332Z,91.00
2022-11-07T07:19:48.412Z,91.00
2022-11-07T07:20:56.544Z,91.00
2022-11-07T07:22:03.401Z,91.00
2022-11-07T07:23:09.358Z,90.90
2022-11-07T07:24:16.369Z,90.90
2022-11-07T07:25:24.339Z,90.90
2022-11-07T07:26:33.585Z,90.80
2022-11-07T07:27:40.406Z,90.60
2022-11-07T07:28:47.340Z,90.70
2022-11-07T07:35:10.320Z,90.60
2022-11-07T07:36:20.824Z,90.60
2022-11-07T07:37:28.321Z,90.60
2022-11-07T07:38:34.492Z,90.60
2022-11-07T07:39:41.376Z,90.60
2022-11-07T07:40:47.404Z,90.70
2022-11-07T07:41:56.359Z,90.60
2022-11-07T07:43:04.352Z,90.60
2022-11-07T07:44:12.515Z,90.60
2022-11-07T07:45:18.327Z,90.60
2022-11-07T07:46:27.348Z,90.70
2022-11-07T07:47:33.357Z,90.70
2022-11-07T07:48:40.323Z,90.80
2022-11-07T07:49:48.450Z,90.90
2022-11-07T07:50:55.347Z,90.90
2022-11-07T07:52:02.369Z,90.90
2022-11-07T07:53:10.344Z,91.00
2022-11-07T07:54:17.332Z,91.00
2022-11-07T07:55:24.780Z,91.10
2022-11-07T07:56:32.361Z,91.20
2022-11-07T07:57:38.331Z,91.20
2022-11-07T07:58:45.436Z,91.20
2022-11-07T07:59:52.398Z,91.20
2022-11-07T08:00:59.714Z,91.20
2022-11-07T08:02:07.399Z,91.20
2022-11-07T08:03:14.867Z,91.20
2022-11-07T08:04:21.323Z,91.20
2022-11-07T08:05:29.384Z,91.20
2022-11-07T08:06:36.547Z,91.20
2022-11-07T08:07:42.335Z,91.20
2022-11-07T08:08:50.348Z,91.30
2022-11-07T08:09:59.391Z,91.30
2022-11-07T08:11:14.391Z,91.30
2022-11-07T08:12:20.531Z,91.30
2022-11-07T08:13:27.363Z,91.30
2022-11-07T08:14:34.321Z,91.30
2022-11-07T08:15:40.315Z,91.30
2022-11-07T08:16:47.317Z,91.30
2022-11-07T08:17:53.560Z,91.20
2022-11-07T08:19:00.340Z,91.20
2022-11-07T08:20:06.341Z,91.10
2022-11-07T08:21:15.317Z,91.10
2022-11-07T08:22:22.358Z,91.00
2022-11-07T08:23:29.520Z,90.90
2022-11-07T08:24:36.338Z,90.90
2022-11-07T08:25:44.365Z,90.80
2022-11-07T08:26:51.386Z,90.80
2022-11-07T08:27:57.325Z,90.80
2022-11-07T08:29:04.834Z,90.70
2022-11-07T08:30:16.647Z,90.70
2022-11-07T08:31:25.378Z,90.80
2022-11-07T08:32:31.378Z,90.70
2022-11-07T08:33:39.518Z,90.70
2022-11-07T08:34:45.496Z,90.70
2022-11-07T08:35:52.358Z,90.70
2022-11-07T08:37:01.319Z,90.60
2022-11-07T08:38:08.345Z,90.40
2022-11-07T08:39:15.382Z,90.50
2022-11-07T08:40:21.584Z,90.50
2022-11-07T08:41:28.364Z,90.40
2022-11-07T08:42:35.350Z,90.40
2022-11-07T08:43:41.335Z,90.40
2022-11-07T08:44:48.381Z,90.40
2022-11-07T08:45:54.500Z,90.30
2022-11-07T08:47:12.491Z,90.30
2022-11-07T08:49:03.361Z,90.30
2022-11-07T08:53:07.594Z,90.10
2022-11-07T08:54:10.362Z,90.30
2022-11-07T08:55:17.340Z,90.20
2022-11-07T08:56:24.346Z,90.30
2022-11-07T08:57:30.366Z,90.40
2022-11-07T08:58:38.723Z,90.30
2022-11-07T08:59:48.370Z,90.20
2022-11-07T09:00:56.503Z,90.30
2022-11-07T09:02:47.542Z,90.30
2022-11-07T09:03:44.971Z,90.20
2022-11-07T09:04:54.604Z,90.20
2022-11-07T09:06:01.360Z,90.30
2022-11-07T09:07:08.351Z,90.20
2022-11-07T09:08:19.327Z,90.10
2022-11-07T09:09:25.333Z,90.10
2022-11-07T09:10:32.561Z,90.10
2022-11-07T09:11:40.375Z,90.10
2022-11-07T09:12:47.385Z,90.20
2022-11-07T09:13:55.403Z,90.20
2022-11-07T09:15:02.375Z,90.20
2022-11-07T09:16:12.500Z,90.10
2022-11-07T09:17:22.374Z,90.10
2022-11-07T09:18:29.356Z,90.00
2022-11-07T09:19:36.374Z,90.00
2022-11-07T09:20:43.325Z,90.00
2022-11-07T09:21:52.520Z,89.70
2022-11-07T09:22:58.353Z,89.50
2022-11-07T09:24:06.345Z,89.40
2022-11-07T09:25:13.371Z,89.40
2022-11-07T09:26:20.336Z,89.30
2022-11-07T09:27:27.494Z,89.10
2022-11-07T09:28:34.375Z,89.10
2022-11-07T09:29:41.361Z,89.20
2022-11-07T09:30:48.351Z,89.20
2022-11-07T09:31:55.362Z,89.30
2022-11-07T09:33:03.538Z,89.40
2022-11-07T09:34:10.372Z,89.40
2022-11-07T09:35:18.704Z,89.30
2022-11-07T09:36:25.371Z,89.30
2022-11-07T09:37:31.332Z,89.50
2022-11-07T09:38:38.503Z,89.50
2022-11-07T09:39:46.358Z,89.60
2022-11-07T09:40:58.341Z,89.70
2022-11-07T09:42:10.349Z,89.90
2022-11-07T09:43:25.582Z,89.80
2022-11-07T09:44:54.541Z,89.90
2022-11-07T09:46:06.334Z,90.00
2022-11-07T09:47:16.320Z,89.40
2022-11-07T09:48:28.353Z,89.40
2022-11-07T09:49:37.387Z,89.40
2022-11-07T09:50:45.585Z,89.40
2022-11-07T09:51:54.394Z,89.40
2022-11-07T09:53:05.350Z,89.60